sensor_id;sensor_type;location;lat;lon;timestamp;temperature;humidity
51133;SHT31;37221;51.548;6.984;2022-07-03T00:01:24;14.67;84.94
51133;SHT31;37221;51.548;6.984;2022-07-03T00:03:50;14.59;85.21
51133;SHT31;37221;51.548;6.984;2022-07-03T00:06:16;14.55;85.50
51133;SHT31;37221;51.548;6.984;2022-07-03T00:08:42;14.52;85.86
51133;SHT31;37221;51.548;6.984;2022-07-03T00:11:09;14.49;86.14
51133;SHT31;37221;51.548;6.984;2022-07-03T00:13:35;14.40;86.26
51133;SHT31;37221;51.548;6.984;2022-07-03T00:16:01;14.28;86.34
51133;SHT31;37221;51.548;6.984;2022-07-03T00:18:27;14.19;86.51
51133;SHT31;37221;51.548;6.984;2022-07-03T00:21:06;14.11;86.79
51133;SHT31;37221;51.548;6.984;2022-07-03T00:23:52;14.11;87.03
51133;SHT31;37221;51.548;6.984;2022-07-03T00:26:25;14.11;87.36
51133;SHT31;37221;51.548;6.984;2022-07-03T00:28:59;14.08;87.62
51133;SHT31;37221;51.548;6.984;2022-07-03T00:31:32;14.04;87.70
51133;SHT31;37221;51.548;6.984;2022-07-03T00:34:00;14.00;87.79
51133;SHT31;37221;51.548;6.984;2022-07-03T00:36:35;13.97;88.00
51133;SHT31;37221;51.548;6.984;2022-07-03T00:39:03;13.98;88.21
51133;SHT31;37221;51.548;6.984;2022-07-03T00:41:35;14.04;88.26
51133;SHT31;37221;51.548;6.984;2022-07-03T00:44:02;14.06;88.24
51133;SHT31;37221;51.548;6.984;2022-07-03T00:46:29;14.06;88.23
51133;SHT31;37221;51.548;6.984;2022-07-03T00:48:57;14.05;88.21
51133;SHT31;37221;51.548;6.984;2022-07-03T00:51:27;14.01;88.25
51133;SHT31;37221;51.548;6.984;2022-07-03T00:53:58;13.95;88.31
51133;SHT31;37221;51.548;6.984;2022-07-03T00:56:30;13.93;88.35
51133;SHT31;37221;51.548;6.984;2022-07-03T00:58:59;13.87;88.56
51133;SHT31;37221;51.548;6.984;2022-07-03T01:01:33;13.90;88.79
51133;SHT31;37221;51.548;6.984;2022-07-03T01:04:54;13.95;88.99
51133;SHT31;37221;51.548;6.984;2022-07-03T01:11:27;13.98;88.97
51133;SHT31;37221;51.548;6.984;2022-07-03T01:14:27;14.01;88.97
51133;SHT31;37221;51.548;6.984;2022-07-03T01:17:21;14.05;89.01
51133;SHT31;37221;51.548;6.984;2022-07-03T01:20:02;14.05;89.05
51133;SHT31;37221;51.548;6.984;2022-07-03T01:30:30;14.04;89.20
51133;SHT31;37221;51.548;6.984;2022-07-03T01:33:13;14.09;89.44
51133;SHT31;37221;51.548;6.984;2022-07-03T01:35:58;14.06;89.48
51133;SHT31;37221;51.548;6.984;2022-07-03T01:38:35;14.04;89.56
51133;SHT31;37221;51.548;6.984;2022-07-03T01:41:06;14.05;89.72
51133;SHT31;37221;51.548;6.984;2022-07-03T01:43:39;14.11;89.89
51133;SHT31;37221;51.548;6.984;2022-07-03T01:46:11;14.18;89.97
51133;SHT31;37221;51.548;6.984;2022-07-03T01:48:43;14.23;89.83
51133;SHT31;37221;51.548;6.984;2022-07-03T01:51:14;14.22;89.73
51133;SHT31;37221;51.548;6.984;2022-07-03T01:53:46;14.26;89.73
51133;SHT31;37221;51.548;6.984;2022-07-03T01:56:15;14.32;89.94
51133;SHT31;37221;51.548;6.984;2022-07-03T01:58:46;14.36;89.90
51133;SHT31;37221;51.548;6.984;2022-07-03T02:01:26;14.39;89.79
51133;SHT31;37221;51.548;6.984;2022-07-03T02:09:49;14.28;89.62
51133;SHT31;37221;51.548;6.984;2022-07-03T02:12:38;14.21;89.69
51133;SHT31;37221;51.548;6.984;2022-07-03T02:15:09;14.12;89.75
51133;SHT31;37221;51.548;6.984;2022-07-03T02:17:45;14.06;89.98
51133;SHT31;37221;51.548;6.984;2022-07-03T02:20:15;14.01;90.05
51133;SHT31;37221;51.548;6.984;2022-07-03T02:22:56;13.87;90.15
51133;SHT31;37221;51.548;6.984;2022-07-03T02:25:37;13.75;90.35
51133;SHT31;37221;51.548;6.984;2022-07-03T02:28:27;13.70;90.67
51133;SHT31;37221;51.548;6.984;2022-07-03T02:31:02;13.67;90.84
51133;SHT31;37221;51.548;6.984;2022-07-03T02:33:38;13.66;91.20
51133;SHT31;37221;51.548;6.984;2022-07-03T02:36:11;13.68;91.48
51133;SHT31;37221;51.548;6.984;2022-07-03T02:38:44;13.68;91.66
51133;SHT31;37221;51.548;6.984;2022-07-03T02:41:19;13.71;91.73
51133;SHT31;37221;51.548;6.984;2022-07-03T02:46:59;13.70;91.56
51133;SHT31;37221;51.548;6.984;2022-07-03T02:49:41;13.61;91.47
51133;SHT31;37221;51.548;6.984;2022-07-03T02:52:20;13.56;91.50
51133;SHT31;37221;51.548;6.984;2022-07-03T02:54:55;13.53;91.55
51133;SHT31;37221;51.548;6.984;2022-07-03T02:57:38;13.53;91.71
51133;SHT31;37221;51.548;6.984;2022-07-03T03:00:09;13.54;91.83
51133;SHT31;37221;51.548;6.984;2022-07-03T03:02:53;13.58;92.02
51133;SHT31;37221;51.548;6.984;2022-07-03T03:05:31;13.60;92.06
51133;SHT31;37221;51.548;6.984;2022-07-03T03:11:41;13.63;92.15
51133;SHT31;37221;51.548;6.984;2022-07-03T03:14:13;13.66;92.13
51133;SHT31;37221;51.548;6.984;2022-07-03T03:17:05;13.61;92.01
51133;SHT31;37221;51.548;6.984;2022-07-03T03:19:40;13.50;91.96
51133;SHT31;37221;51.548;6.984;2022-07-03T03:25:15;13.50;92.42
51133;SHT31;37221;51.548;6.984;2022-07-03T03:27:41;13.48;92.39
51133;SHT31;37221;51.548;6.984;2022-07-03T03:30:08;13.43;92.42
51133;SHT31;37221;51.548;6.984;2022-07-03T03:32:35;13.35;92.42
51133;SHT31;37221;51.548;6.984;2022-07-03T03:35:04;13.25;92.50
51133;SHT31;37221;51.548;6.984;2022-07-03T03:37:30;13.16;92.59
51133;SHT31;37221;51.548;6.984;2022-07-03T03:39:57;13.06;92.68
51133;SHT31;37221;51.548;6.984;2022-07-03T03:42:23;12.95;92.77
51133;SHT31;37221;51.548;6.984;2022-07-03T03:44:49;12.92;92.94
51133;SHT31;37221;51.548;6.984;2022-07-03T03:47:14;12.91;93.13
51133;SHT31;37221;51.548;6.984;2022-07-03T03:49:40;12.91;93.28
51133;SHT31;37221;51.548;6.984;2022-07-03T03:52:06;12.88;93.32
51133;SHT31;37221;51.548;6.984;2022-07-03T03:54:32;12.85;93.34
51133;SHT31;37221;51.548;6.984;2022-07-03T03:57:22;12.84;93.60
51133;SHT31;37221;51.548;6.984;2022-07-03T03:59:50;12.84;93.64
51133;SHT31;37221;51.548;6.984;2022-07-03T04:02:17;12.82;93.76
51133;SHT31;37221;51.548;6.984;2022-07-03T04:04:45;12.89;93.90
51133;SHT31;37221;51.548;6.984;2022-07-03T04:07:10;12.99;94.20
51133;SHT31;37221;51.548;6.984;2022-07-03T04:09:36;13.06;94.21
51133;SHT31;37221;51.548;6.984;2022-07-03T04:12:03;13.09;94.17
51133;SHT31;37221;51.548;6.984;2022-07-03T04:14:30;13.08;94.15
51133;SHT31;37221;51.548;6.984;2022-07-03T04:16:56;13.06;94.13
51133;SHT31;37221;51.548;6.984;2022-07-03T04:19:22;12.99;94.15
51133;SHT31;37221;51.548;6.984;2022-07-03T04:21:49;13.01;94.22
51133;SHT31;37221;51.548;6.984;2022-07-03T04:24:17;13.05;94.42
51133;SHT31;37221;51.548;6.984;2022-07-03T04:26:43;13.15;94.51
51133;SHT31;37221;51.548;6.984;2022-07-03T04:29:09;13.29;94.67
51133;SHT31;37221;51.548;6.984;2022-07-03T04:31:34;13.40;94.78
51133;SHT31;37221;51.548;6.984;2022-07-03T04:34:00;13.58;94.83
51133;SHT31;37221;51.548;6.984;2022-07-03T04:36:26;13.66;94.76
51133;SHT31;37221;51.548;6.984;2022-07-03T04:38:51;13.73;94.67
51133;SHT31;37221;51.548;6.984;2022-07-03T04:41:17;13.78;94.65
51133;SHT31;37221;51.548;6.984;2022-07-03T04:43:43;13.83;94.62
51133;SHT31;37221;51.548;6.984;2022-07-03T04:46:09;13.87;94.55
51133;SHT31;37221;51.548;6.984;2022-07-03T04:48:34;13.93;94.56
51133;SHT31;37221;51.548;6.984;2022-07-03T04:51:00;13.91;94.54
51133;SHT31;37221;51.548;6.984;2022-07-03T04:53:26;14.09;94.95
51133;SHT31;37221;51.548;6.984;2022-07-03T04:55:51;14.28;94.88
51133;SHT31;37221;51.548;6.984;2022-07-03T04:58:18;14.49;94.94
51133;SHT31;37221;51.548;6.984;2022-07-03T05:00:45;14.74;94.99
51133;SHT31;37221;51.548;6.984;2022-07-03T05:03:12;14.90;94.77
51133;SHT31;37221;51.548;6.984;2022-07-03T05:05:38;15.00;94.68
51133;SHT31;37221;51.548;6.984;2022-07-03T05:08:04;15.50;95.11
51133;SHT31;37221;51.548;6.984;2022-07-03T05:10:30;16.17;95.18
51133;SHT31;37221;51.548;6.984;2022-07-03T05:12:56;16.77;94.97
51133;SHT31;37221;51.548;6.984;2022-07-03T05:15:22;17.34;94.25
51133;SHT31;37221;51.548;6.984;2022-07-03T05:17:48;18.07;89.31
51133;SHT31;37221;51.548;6.984;2022-07-03T05:20:14;18.73;84.94
51133;SHT31;37221;51.548;6.984;2022-07-03T05:22:50;19.10;79.82
51133;SHT31;37221;51.548;6.984;2022-07-03T05:25:20;19.30;77.27
51133;SHT31;37221;51.548;6.984;2022-07-03T05:27:48;19.34;77.48
51133;SHT31;37221;51.548;6.984;2022-07-03T05:30:19;19.30;76.22
51133;SHT31;37221;51.548;6.984;2022-07-03T05:32:46;19.32;75.19
51133;SHT31;37221;51.548;6.984;2022-07-03T05:35:12;19.34;74.61
51133;SHT31;37221;51.548;6.984;2022-07-03T05:37:38;19.61;75.09
51133;SHT31;37221;51.548;6.984;2022-07-03T05:40:05;19.83;74.02
51133;SHT31;37221;51.548;6.984;2022-07-03T05:42:32;20.06;73.66
51133;SHT31;37221;51.548;6.984;2022-07-03T05:44:58;20.10;70.98
51133;SHT31;37221;51.548;6.984;2022-07-03T05:51:22;20.51;68.92
51133;SHT31;37221;51.548;6.984;2022-07-03T05:53:48;20.68;68.23
51133;SHT31;37221;51.548;6.984;2022-07-03T05:56:14;20.95;68.01
51133;SHT31;37221;51.548;6.984;2022-07-03T05:58:39;21.33;65.96
51133;SHT31;37221;51.548;6.984;2022-07-03T06:01:06;21.61;64.68
51133;SHT31;37221;51.548;6.984;2022-07-03T06:03:32;21.83;63.16
51133;SHT31;37221;51.548;6.984;2022-07-03T06:05:59;21.88;62.82
51133;SHT31;37221;51.548;6.984;2022-07-03T06:08:25;22.04;62.78
51133;SHT31;37221;51.548;6.984;2022-07-03T06:10:51;22.10;62.30
51133;SHT31;37221;51.548;6.984;2022-07-03T06:13:16;22.19;62.07
51133;SHT31;37221;51.548;6.984;2022-07-03T06:15:42;22.12;60.27
51133;SHT31;37221;51.548;6.984;2022-07-03T06:18:08;22.10;61.75
51133;SHT31;37221;51.548;6.984;2022-07-03T06:20:33;22.09;61.54
51133;SHT31;37221;51.548;6.984;2022-07-03T06:22:59;22.09;61.74
51133;SHT31;37221;51.548;6.984;2022-07-03T06:25:25;22.18;61.55
51133;SHT31;37221;51.548;6.984;2022-07-03T06:27:50;22.23;60.17
51133;SHT31;37221;51.548;6.984;2022-07-03T06:30:16;22.16;60.13
51133;SHT31;37221;51.548;6.984;2022-07-03T06:32:41;22.23;60.90
51133;SHT31;37221;51.548;6.984;2022-07-03T06:35:17;22.37;60.22
51133;SHT31;37221;51.548;6.984;2022-07-03T06:37:43;22.30;58.89
51133;SHT31;37221;51.548;6.984;2022-07-03T06:40:09;22.39;59.18
51133;SHT31;37221;51.548;6.984;2022-07-03T06:42:35;22.32;58.64
51133;SHT31;37221;51.548;6.984;2022-07-03T06:45:01;22.39;58.32
51133;SHT31;37221;51.548;6.984;2022-07-03T06:47:27;22.44;59.99
51133;SHT31;37221;51.548;6.984;2022-07-03T06:49:53;22.41;60.26
51133;SHT31;37221;51.548;6.984;2022-07-03T06:52:18;22.63;57.66
51133;SHT31;37221;51.548;6.984;2022-07-03T06:54:44;22.78;57.47
51133;SHT31;37221;51.548;6.984;2022-07-03T06:57:11;23.01;57.44
51133;SHT31;37221;51.548;6.984;2022-07-03T06:59:38;23.22;58.75
51133;SHT31;37221;51.548;6.984;2022-07-03T07:02:04;23.33;58.45
51133;SHT31;37221;51.548;6.984;2022-07-03T07:04:30;23.57;58.24
51133;SHT31;37221;51.548;6.984;2022-07-03T07:06:56;23.57;57.27
51133;SHT31;37221;51.548;6.984;2022-07-03T07:09:22;23.73;57.09
51133;SHT31;37221;51.548;6.984;2022-07-03T07:12:03;23.67;54.34
51133;SHT31;37221;51.548;6.984;2022-07-03T07:14:29;23.41;56.07
51133;SHT31;37221;51.548;6.984;2022-07-03T07:16:55;23.25;54.56
51133;SHT31;37221;51.548;6.984;2022-07-03T07:19:21;23.26;56.52
51133;SHT31;37221;51.548;6.984;2022-07-03T07:21:47;23.49;56.52
51133;SHT31;37221;51.548;6.984;2022-07-03T07:24:13;23.49;57.46
51133;SHT31;37221;51.548;6.984;2022-07-03T07:26:39;23.66;55.66
51133;SHT31;37221;51.548;6.984;2022-07-03T07:29:04;23.69;56.17
51133;SHT31;37221;51.548;6.984;2022-07-03T07:31:30;23.80;55.75
51133;SHT31;37221;51.548;6.984;2022-07-03T07:33:56;23.79;53.82
51133;SHT31;37221;51.548;6.984;2022-07-03T07:36:21;23.94;54.14
51133;SHT31;37221;51.548;6.984;2022-07-03T07:38:47;24.08;53.22
51133;SHT31;37221;51.548;6.984;2022-07-03T07:41:12;24.25;54.11
51133;SHT31;37221;51.548;6.984;2022-07-03T07:43:38;24.38;54.53
51133;SHT31;37221;51.548;6.984;2022-07-03T07:46:04;24.57;55.93
51133;SHT31;37221;51.548;6.984;2022-07-03T07:48:29;24.66;53.08
51133;SHT31;37221;51.548;6.984;2022-07-03T07:50:56;24.55;52.94
51133;SHT31;37221;51.548;6.984;2022-07-03T07:53:22;24.77;53.89
51133;SHT31;37221;51.548;6.984;2022-07-03T07:55:47;25.15;53.34
51133;SHT31;37221;51.548;6.984;2022-07-03T07:58:13;25.27;52.48
51133;SHT31;37221;51.548;6.984;2022-07-03T08:00:39;25.30;50.83
51133;SHT31;37221;51.548;6.984;2022-07-03T08:03:24;25.13;51.50
51133;SHT31;37221;51.548;6.984;2022-07-03T08:06:09;25.28;50.79
51133;SHT31;37221;51.548;6.984;2022-07-03T08:08:35;25.35;48.08
51133;SHT31;37221;51.548;6.984;2022-07-03T08:11:01;25.37;50.72
51133;SHT31;37221;51.548;6.984;2022-07-03T08:13:26;25.42;49.63
51133;SHT31;37221;51.548;6.984;2022-07-03T08:15:52;25.38;50.00
51133;SHT31;37221;51.548;6.984;2022-07-03T08:18:18;25.48;51.57
51133;SHT31;37221;51.548;6.984;2022-07-03T08:20:44;25.68;49.72
51133;SHT31;37221;51.548;6.984;2022-07-03T08:23:09;26.01;51.05
51133;SHT31;37221;51.548;6.984;2022-07-03T08:25:35;26.19;48.55
51133;SHT31;37221;51.548;6.984;2022-07-03T08:28:01;26.20;47.08
51133;SHT31;37221;51.548;6.984;2022-07-03T08:30:28;25.75;49.57
51133;SHT31;37221;51.548;6.984;2022-07-03T08:32:57;25.85;49.07
51133;SHT31;37221;51.548;6.984;2022-07-03T08:35:23;25.94;50.87
51133;SHT31;37221;51.548;6.984;2022-07-03T08:37:50;25.92;47.27
51133;SHT31;37221;51.548;6.984;2022-07-03T08:40:19;25.96;45.57
51133;SHT31;37221;51.548;6.984;2022-07-03T08:42:58;26.20;49.29
51133;SHT31;37221;51.548;6.984;2022-07-03T08:45:30;26.33;47.49
51133;SHT31;37221;51.548;6.984;2022-07-03T08:47:59;26.48;47.84
51133;SHT31;37221;51.548;6.984;2022-07-03T08:50:27;26.49;47.09
51133;SHT31;37221;51.548;6.984;2022-07-03T08:52:54;26.40;46.09
51133;SHT31;37221;51.548;6.984;2022-07-03T08:55:20;26.44;46.33
51133;SHT31;37221;51.548;6.984;2022-07-03T08:57:48;26.78;46.52
51133;SHT31;37221;51.548;6.984;2022-07-03T09:00:37;27.16;47.45
51133;SHT31;37221;51.548;6.984;2022-07-03T09:03:10;27.13;46.71
51133;SHT31;37221;51.548;6.984;2022-07-03T09:05:38;27.07;47.81
51133;SHT31;37221;51.548;6.984;2022-07-03T09:08:07;26.96;44.92
51133;SHT31;37221;51.548;6.984;2022-07-03T09:10:34;27.02;47.72
51133;SHT31;37221;51.548;6.984;2022-07-03T09:13:01;27.16;46.69
51133;SHT31;37221;51.548;6.984;2022-07-03T09:15:26;27.10;44.01
51133;SHT31;37221;51.548;6.984;2022-07-03T09:18:04;27.27;43.82
51133;SHT31;37221;51.548;6.984;2022-07-03T09:20:40;27.30;45.65
51133;SHT31;37221;51.548;6.984;2022-07-03T09:23:19;27.44;42.53
51133;SHT31;37221;51.548;6.984;2022-07-03T09:25:53;27.70;46.79
51133;SHT31;37221;51.548;6.984;2022-07-03T09:28:48;27.84;43.02
51133;SHT31;37221;51.548;6.984;2022-07-03T09:31:23;27.95;44.92
51133;SHT31;37221;51.548;6.984;2022-07-03T09:36:43;27.82;46.98
51133;SHT31;37221;51.548;6.984;2022-07-03T09:39:19;27.53;46.71
51133;SHT31;37221;51.548;6.984;2022-07-03T09:44:43;28.06;46.49
51133;SHT31;37221;51.548;6.984;2022-07-03T09:47:22;28.23;44.73
51133;SHT31;37221;51.548;6.984;2022-07-03T09:49:58;28.09;44.68
51133;SHT31;37221;51.548;6.984;2022-07-03T09:52:44;27.88;45.31
51133;SHT31;37221;51.548;6.984;2022-07-03T10:00:26;27.68;43.63
51133;SHT31;37221;51.548;6.984;2022-07-03T10:03:07;27.71;48.94
51133;SHT31;37221;51.548;6.984;2022-07-03T10:05:41;27.74;45.92
51133;SHT31;37221;51.548;6.984;2022-07-03T10:10:42;28.08;46.70
51133;SHT31;37221;51.548;6.984;2022-07-03T10:13:11;27.99;43.66
51133;SHT31;37221;51.548;6.984;2022-07-03T10:15:40;27.98;45.93
51133;SHT31;37221;51.548;6.984;2022-07-03T10:18:12;28.22;46.94
51133;SHT31;37221;51.548;6.984;2022-07-03T10:20:40;28.37;45.02
51133;SHT31;37221;51.548;6.984;2022-07-03T10:23:11;28.73;44.57
51133;SHT31;37221;51.548;6.984;2022-07-03T10:25:44;28.78;44.36
51133;SHT31;37221;51.548;6.984;2022-07-03T10:28:12;29.02;42.40
51133;SHT31;37221;51.548;6.984;2022-07-03T10:30:43;29.02;45.35
51133;SHT31;37221;51.548;6.984;2022-07-03T10:33:09;28.75;42.91
51133;SHT31;37221;51.548;6.984;2022-07-03T10:35:39;28.90;42.86
51133;SHT31;37221;51.548;6.984;2022-07-03T10:38:37;28.81;41.96
51133;SHT31;37221;51.548;6.984;2022-07-03T10:41:34;28.87;43.83
51133;SHT31;37221;51.548;6.984;2022-07-03T10:44:20;29.01;43.72
51133;SHT31;37221;51.548;6.984;2022-07-03T10:47:05;28.84;43.26
51133;SHT31;37221;51.548;6.984;2022-07-03T10:49:31;28.61;44.01
51133;SHT31;37221;51.548;6.984;2022-07-03T10:52:01;28.70;43.59
51133;SHT31;37221;51.548;6.984;2022-07-03T10:54:34;28.25;43.94
51133;SHT31;37221;51.548;6.984;2022-07-03T11:07:25;28.15;43.61
51133;SHT31;37221;51.548;6.984;2022-07-03T11:15:34;28.71;43.87
51133;SHT31;37221;51.548;6.984;2022-07-03T11:23:29;29.47;44.47
51133;SHT31;37221;51.548;6.984;2022-07-03T11:26:22;29.02;42.27
51133;SHT31;37221;51.548;6.984;2022-07-03T11:28:55;28.41;43.66
51133;SHT31;37221;51.548;6.984;2022-07-03T11:31:22;28.67;45.73
51133;SHT31;37221;51.548;6.984;2022-07-03T11:39:08;29.33;45.21
51133;SHT31;37221;51.548;6.984;2022-07-03T11:44:07;29.35;42.17
51133;SHT31;37221;51.548;6.984;2022-07-03T11:46:38;28.88;43.83
51133;SHT31;37221;51.548;6.984;2022-07-03T11:49:20;29.02;44.31
51133;SHT31;37221;51.548;6.984;2022-07-03T11:52:02;29.33;41.09
51133;SHT31;37221;51.548;6.984;2022-07-03T11:54:51;29.12;39.25
51133;SHT31;37221;51.548;6.984;2022-07-03T11:57:18;29.06;45.69
51133;SHT31;37221;51.548;6.984;2022-07-03T11:59:44;29.12;44.94
51133;SHT31;37221;51.548;6.984;2022-07-03T12:02:14;29.23;43.72
51133;SHT31;37221;51.548;6.984;2022-07-03T12:04:39;28.60;42.54
51133;SHT31;37221;51.548;6.984;2022-07-03T12:07:06;28.02;43.82
51133;SHT31;37221;51.548;6.984;2022-07-03T12:09:34;28.18;47.61
51133;SHT31;37221;51.548;6.984;2022-07-03T12:12:10;27.93;45.38
51133;SHT31;37221;51.548;6.984;2022-07-03T12:14:47;28.29;45.74
51133;SHT31;37221;51.548;6.984;2022-07-03T12:17:32;29.11;44.42
51133;SHT31;37221;51.548;6.984;2022-07-03T12:20:00;28.35;40.94
51133;SHT31;37221;51.548;6.984;2022-07-03T12:22:36;27.64;44.39
51133;SHT31;37221;51.548;6.984;2022-07-03T12:25:09;27.16;44.94
51133;SHT31;37221;51.548;6.984;2022-07-03T12:27:43;27.80;42.82
51133;SHT31;37221;51.548;6.984;2022-07-03T12:30:19;28.61;45.81
51133;SHT31;37221;51.548;6.984;2022-07-03T12:32:52;29.45;41.22
51133;SHT31;37221;51.548;6.984;2022-07-03T12:35:25;30.00;40.13
51133;SHT31;37221;51.548;6.984;2022-07-03T12:37:52;30.40;41.14
51133;SHT31;37221;51.548;6.984;2022-07-03T12:40:17;30.84;38.45
51133;SHT31;37221;51.548;6.984;2022-07-03T12:42:50;30.79;37.52
51133;SHT31;37221;51.548;6.984;2022-07-03T12:45:26;30.76;39.29
51133;SHT31;37221;51.548;6.984;2022-07-03T12:48:02;31.10;40.59
51133;SHT31;37221;51.548;6.984;2022-07-03T12:50:51;31.15;37.05
51133;SHT31;37221;51.548;6.984;2022-07-03T12:53:28;31.23;38.22
51133;SHT31;37221;51.548;6.984;2022-07-03T12:56:03;31.31;38.18
51133;SHT31;37221;51.548;6.984;2022-07-03T12:58:35;31.76;33.68
51133;SHT31;37221;51.548;6.984;2022-07-03T13:01:33;31.65;34.75
51133;SHT31;37221;51.548;6.984;2022-07-03T13:04:02;32.10;36.03
51133;SHT31;37221;51.548;6.984;2022-07-03T13:06:32;32.10;35.40
51133;SHT31;37221;51.548;6.984;2022-07-03T13:09:01;32.43;34.48
51133;SHT31;37221;51.548;6.984;2022-07-03T13:11:36;32.63;33.14
51133;SHT31;37221;51.548;6.984;2022-07-03T13:14:14;33.71;33.33
51133;SHT31;37221;51.548;6.984;2022-07-03T13:16:49;34.64;33.50
51133;SHT31;37221;51.548;6.984;2022-07-03T13:19:19;34.87;30.18
51133;SHT31;37221;51.548;6.984;2022-07-03T13:21:47;35.15;31.38
51133;SHT31;37221;51.548;6.984;2022-07-03T13:24:16;34.74;29.63
51133;SHT31;37221;51.548;6.984;2022-07-03T13:26:43;33.82;32.26
51133;SHT31;37221;51.548;6.984;2022-07-03T13:29:09;32.10;33.56
51133;SHT31;37221;51.548;6.984;2022-07-03T13:31:34;31.59;34.70
51133;SHT31;37221;51.548;6.984;2022-07-03T13:34:00;31.96;34.74
51133;SHT31;37221;51.548;6.984;2022-07-03T13:36:29;33.57;32.94
51133;SHT31;37221;51.548;6.984;2022-07-03T13:38:56;34.83;32.68
51133;SHT31;37221;51.548;6.984;2022-07-03T13:41:24;35.31;31.92
51133;SHT31;37221;51.548;6.984;2022-07-03T13:43:51;35.71;29.70
51133;SHT31;37221;51.548;6.984;2022-07-03T13:46:19;35.33;28.95
51133;SHT31;37221;51.548;6.984;2022-07-03T13:48:51;34.78;33.11
51133;SHT31;37221;51.548;6.984;2022-07-03T13:51:19;34.45;31.16
51133;SHT31;37221;51.548;6.984;2022-07-03T13:53:46;33.64;31.88
51133;SHT31;37221;51.548;6.984;2022-07-03T13:56:14;32.65;32.86
51133;SHT31;37221;51.548;6.984;2022-07-03T13:58:41;32.07;34.73
51133;SHT31;37221;51.548;6.984;2022-07-03T14:01:07;32.00;36.26
51133;SHT31;37221;51.548;6.984;2022-07-03T14:03:33;31.80;36.38
51133;SHT31;37221;51.548;6.984;2022-07-03T14:06:08;32.57;35.89
51133;SHT31;37221;51.548;6.984;2022-07-03T14:08:34;32.30;34.54
51133;SHT31;37221;51.548;6.984;2022-07-03T14:10:59;32.16;37.09
51133;SHT31;37221;51.548;6.984;2022-07-03T14:13:25;33.13;32.92
51133;SHT31;37221;51.548;6.984;2022-07-03T14:15:51;32.48;32.94
51133;SHT31;37221;51.548;6.984;2022-07-03T14:18:16;31.34;37.18
51133;SHT31;37221;51.548;6.984;2022-07-03T14:20:42;29.96;38.37
51133;SHT31;37221;51.548;6.984;2022-07-03T14:23:08;28.75;40.40
51133;SHT31;37221;51.548;6.984;2022-07-03T14:25:33;28.05;41.76
51133;SHT31;37221;51.548;6.984;2022-07-03T14:27:59;27.68;43.69
51133;SHT31;37221;51.548;6.984;2022-07-03T14:30:43;27.50;42.59
51133;SHT31;37221;51.548;6.984;2022-07-03T14:33:27;27.13;44.55
51133;SHT31;37221;51.548;6.984;2022-07-03T14:35:53;26.96;43.65
51133;SHT31;37221;51.548;6.984;2022-07-03T14:38:19;26.89;44.94
51133;SHT31;37221;51.548;6.984;2022-07-03T14:40:45;28.39;41.93
51133;SHT31;37221;51.548;6.984;2022-07-03T14:43:11;31.14;39.92
51133;SHT31;37221;51.548;6.984;2022-07-03T14:45:37;32.00;36.44
51133;SHT31;37221;51.548;6.984;2022-07-03T14:48:02;31.01;37.76
51133;SHT31;37221;51.548;6.984;2022-07-03T14:50:31;30.02;38.37
51133;SHT31;37221;51.548;6.984;2022-07-03T14:52:56;29.18;40.62
51133;SHT31;37221;51.548;6.984;2022-07-03T14:55:36;28.10;41.42
51133;SHT31;37221;51.548;6.984;2022-07-03T14:58:16;27.33;43.10
51133;SHT31;37221;51.548;6.984;2022-07-03T15:00:54;26.79;45.81
51133;SHT31;37221;51.548;6.984;2022-07-03T15:06:01;26.04;46.02
51133;SHT31;37221;51.548;6.984;2022-07-03T15:08:50;25.99;45.90
51133;SHT31;37221;51.548;6.984;2022-07-03T15:11:52;28.37;44.99
51133;SHT31;37221;51.548;6.984;2022-07-03T15:14:43;30.84;39.00
51133;SHT31;37221;51.548;6.984;2022-07-03T15:17:12;30.67;39.61
51133;SHT31;37221;51.548;6.984;2022-07-03T15:19:40;30.32;37.97
51133;SHT31;37221;51.548;6.984;2022-07-03T15:22:08;29.63;39.79
51133;SHT31;37221;51.548;6.984;2022-07-03T15:24:38;29.26;38.17
51133;SHT31;37221;51.548;6.984;2022-07-03T15:27:06;29.62;40.10
51133;SHT31;37221;51.548;6.984;2022-07-03T15:29:35;30.12;37.73
51133;SHT31;37221;51.548;6.984;2022-07-03T15:32:04;31.78;38.90
51133;SHT31;37221;51.548;6.984;2022-07-03T15:34:30;33.93;31.64
51133;SHT31;37221;51.548;6.984;2022-07-03T15:40:07;31.55;35.36
51133;SHT31;37221;51.548;6.984;2022-07-03T15:43:32;32.61;34.38
51133;SHT31;37221;51.548;6.984;2022-07-03T15:46:26;33.23;35.91
51133;SHT31;37221;51.548;6.984;2022-07-03T15:52:00;35.64;31.59
51133;SHT31;37221;51.548;6.984;2022-07-03T16:00:23;33.42;34.89
51133;SHT31;37221;51.548;6.984;2022-07-03T16:03:28;32.57;35.24
51133;SHT31;37221;51.548;6.984;2022-07-03T16:06:06;31.41;36.85
51133;SHT31;37221;51.548;6.984;2022-07-03T16:08:34;30.19;40.45
51133;SHT31;37221;51.548;6.984;2022-07-03T16:11:05;30.48;39.84
51133;SHT31;37221;51.548;6.984;2022-07-03T16:13:31;29.96;38.93
51133;SHT31;37221;51.548;6.984;2022-07-03T16:15:59;29.22;42.53
51133;SHT31;37221;51.548;6.984;2022-07-03T16:18:28;28.35;42.05
51133;SHT31;37221;51.548;6.984;2022-07-03T16:20:55;27.88;46.93
51133;SHT31;37221;51.548;6.984;2022-07-03T16:23:21;27.64;46.55
51133;SHT31;37221;51.548;6.984;2022-07-03T16:25:49;28.59;45.93
51133;SHT31;37221;51.548;6.984;2022-07-03T16:28:22;28.39;44.38
51133;SHT31;37221;51.548;6.984;2022-07-03T16:30:49;27.89;45.86
51133;SHT31;37221;51.548;6.984;2022-07-03T16:33:22;27.44;46.58
51133;SHT31;37221;51.548;6.984;2022-07-03T16:36:01;26.82;46.21
51133;SHT31;37221;51.548;6.984;2022-07-03T16:38:39;26.31;47.13
51133;SHT31;37221;51.548;6.984;2022-07-03T16:41:12;26.20;45.47
51133;SHT31;37221;51.548;6.984;2022-07-03T16:43:45;26.79;46.72
51133;SHT31;37221;51.548;6.984;2022-07-03T16:46:12;26.65;45.61
51133;SHT31;37221;51.548;6.984;2022-07-03T16:48:47;26.30;46.38
51133;SHT31;37221;51.548;6.984;2022-07-03T16:51:17;26.01;45.66
51133;SHT31;37221;51.548;6.984;2022-07-03T16:53:44;25.78;45.84
51133;SHT31;37221;51.548;6.984;2022-07-03T16:56:11;25.54;47.05
51133;SHT31;37221;51.548;6.984;2022-07-03T16:58:38;25.28;44.27
51133;SHT31;37221;51.548;6.984;2022-07-03T17:01:08;25.13;46.08
51133;SHT31;37221;51.548;6.984;2022-07-03T17:03:38;26.26;45.66
51133;SHT31;37221;51.548;6.984;2022-07-03T17:06:05;29.25;37.14
51133;SHT31;37221;51.548;6.984;2022-07-03T17:08:34;30.40;36.65
51133;SHT31;37221;51.548;6.984;2022-07-03T17:11:02;29.53;38.23
51133;SHT31;37221;51.548;6.984;2022-07-03T17:13:28;28.53;40.06
51133;SHT31;37221;51.548;6.984;2022-07-03T17:15:56;27.37;41.45
51133;SHT31;37221;51.548;6.984;2022-07-03T17:18:42;26.45;45.95
51133;SHT31;37221;51.548;6.984;2022-07-03T17:21:17;25.86;46.15
51133;SHT31;37221;51.548;6.984;2022-07-03T17:23:53;25.71;47.13